หน้าหลัก
METAR-TAF:

METAR-TAF

ท่าอากาศยาน :

Midland, เทกซัส, สหรัฐอเมริกา

ละติจูด: 32-02-11N, ลองจิจูด: 102-06-03W, ความสูง: 854 ม.

การสังเกตสภาพอากาศปัจจุบัน

รายงานได้ทำขึ้นเมื่อ 18 นาทีที่แล้ว ณ เวลา 14:55 UTC
ลม 4 นอตจากตะวันออก
อุณหภูมิ 25°C
ความชื้น 65%
ความกดอากาศ 1019 hPa
ทัศนวิสัย: 16.1 กม.
ท้องฟ้าแจ่มใส

METAR: KMDD 121455Z AUTO 10004KT 10SM CLR 25/18 A3009 RMK AO2 T02500178

เวลา: 10:13 (15:13 UTC)


TAF: หายไป

สังเกตการณ์สภาพอากาศและพยากรณ์อากาศของสนามบินมากกว่า 4000 แห่ง (รายงาน METAR และ TAF).

สถานีที่ดูได้จะแสดงไว้ด้วยจุดสีเหลืองและสีแดงบนแผนที่.

เลื่อนเมาส์ไปเหนือจุดเพื่อดูชื่อสถานี.

แล้วคลิกเพื่อดูสังเกตการณ์และการพยากรณ์สภาพอากาศ.

ในการเปลี่ยนแผนที่: คลิกที่ปุ่มสีเขียวที่มีกากบาทสีดำเพื่อซูมเข้า; ที่ปุ่มสีเขียวที่มีขีดเพื่อซูมออก; หรือที่ลูกศรสีเขียวเพื่อไปยังแผนที่ที่อยู่ติดกัน.


METAR-TAF: